Flight Track Log - Related Links

Times and Time Zones

All times are in EDT time to prevent confusion due to time zone crossing. See the EJA396 flight status page for this flight to view local times or setup timezone preferences in your user account.

Time Position Orientation Groundspeed Altitude Reporting Facility
EDT Latitude Longitude Course Direction KTS MPH feet Rate Location/Type
Thu 12:32:28 PM 41.3022 -70.1661 286° West 206 237 7,400  Level Boston Center
Thu 12:33:28 PM 41.3250 -70.2703 286° West 230 265 10,200 3,223 Climbing Boston Center
Thu 12:34:29 PM 41.3647 -70.3822 295° West 288 331 13,900 4,017 Climbing Boston Center
Thu 12:35:29 PM 41.4144 -70.4831 303° West 319 367 18,300 3,967 Climbing Boston Center
Thu 12:36:30 PM 41.4864 -70.5475 326° Northwest 308 354 21,900 3,372 Climbing Boston Center
Thu 12:37:30 PM 41.5644 -70.6144 327° Northwest 322 371 25,100 3,102 Climbing Boston Center
Thu 12:38:28 PM 41.6386 -70.6872 324° Northwest 334 384 28,000 2,695 Climbing Boston Center
Thu 12:39:28 PM 41.6944 -70.7969 304° West 346 398 30,400 2,132 Climbing Boston Center
Thu 12:40:29 PM 41.7358 -70.9322 292° West 373 429 32,300 1,934 Climbing Boston Center
Thu 12:41:29 PM 41.7731 -71.0678 290° West 378 435 34,300 1,884 Climbing Boston Center
Thu 12:42:30 PM 41.8122 -71.1978 292° West 378 435 36,100 1,361 Climbing Boston Center
Thu 12:43:28 PM 41.8511 -71.3364 291° West 390 449 37,000 504 Climbing Boston Center
Thu 12:44:29 PM 41.8919 -71.4808 291° West 401 461 37,100 590 Climbing Boston Center
Thu 12:45:30 PM 41.9242 -71.6058 289° West 407 468 38,200 958 Climbing Boston Center
Thu 12:46:28 PM 41.9647 -71.7478 291° West 407 468 39,000 369 Climbing Boston Center
Thu 12:47:40 PM 42.0158 -71.9286 291° West 414 476 39,000  Level Boston Center
Thu 12:48:41 PM 42.0517 -72.0711 289° West 414 476 39,000  Level Boston Center
Thu 12:49:41 PM 42.0897 -72.2078 291° West 403 464 39,000  Level Boston Center
Thu 12:50:42 PM 42.1294 -72.3506 291° West 403 464 39,000  Level Boston Center
Thu 12:51:40 PM 42.1669 -72.4906 290° West 403 464 39,000 252 Level Boston Center
Thu 12:52:41 PM 42.2044 -72.6278 290° West 403 464 39,500 492 Climbing Boston Center
Thu 12:53:42 PM 42.2417 -72.7653 290° West 403 464 40,000 248 Climbing Boston Center
Thu 12:54:42 PM 42.2786 -72.9172 288° West 403 464 40,000  Level Boston Center
Thu 12:55:40 PM 42.2778 -73.0714 270° West 397 457 40,000  Level Boston Center
Thu 12:56:40 PM 42.2664 -73.2200 264° West 402 463 40,000  Level Boston Center
Thu 12:57:41 PM 42.2592 -73.3631 266° West 402 463 40,000  Level Boston Center
Thu 12:58:41 PM 42.2453 -73.5142 263° West 397 457 40,000  Level Boston Center
Thu 12:59:42 PM 42.2292 -73.6681 262° West 409 471 40,000  Level Boston Center
Thu 01:00:41 PM 42.2128 -73.8247 262° West 423 487 40,000  Level Boston Center
Thu 01:01:41 PM 42.2003 -73.9786 264° West 423 487 40,000  Level Boston Center
Thu 01:02:41 PM 42.1856 -74.1297 263° West 423 487 40,000  Level Boston Center
Thu 01:03:42 PM 42.1686 -74.2806 261° West 417 480 40,000  Level Boston Center
Thu 01:04:40 PM 42.1583 -74.4061 264° West 417 480 40,000 -960 Level Boston Center
Thu 01:06:37 PM 42.1242 -74.7164 262° West 426 490 37,200 -1,787 Descending New York Center
Thu 01:07:38 PM 42.1106 -74.8775 264° West 431 496 34,700 -2,579 Descending New York Center
Thu 01:08:38 PM 42.0919 -75.0467 262° West 431 496 32,000 -2,542 Descending New York Center
Thu 01:09:36 PM 42.0742 -75.1964 261° West 420 483 29,700 -2,017 Descending New York Center
Thu 01:10:37 PM 42.0597 -75.3519 263° West 420 483 28,000 -843 Descending New York Center
Thu 01:11:37 PM 42.0417 -75.4958 260° West 436 502 28,000  Level New York Center
Thu 01:12:38 PM 42.0208 -75.6536 260° West 436 502 28,000 -303 Level New York Center
Thu 01:13:36 PM 41.9997 -75.8108 260° West 436 502 27,400 -807 Descending New York Center
Thu 01:14:37 PM 41.9783 -75.9656 260° West 436 502 26,400 -984 Descending New York Center
Thu 01:15:38 PM 41.9589 -76.1231 261° West 436 502 25,400 -1,140 Descending New York Center
Thu 01:16:38 PM 41.9375 -76.2747 259° West 436 502 24,100 -700 Descending New York Center
Thu 01:17:38 PM 41.9147 -76.4456 260° West 426 490 24,000 -51 Descending New York Center
Thu 01:18:36 PM 41.8928 -76.5969 259° West 426 490 24,000  Level New York Center
Thu 01:19:37 PM 41.8708 -76.7456 259° West 421 484 24,000  Level New York Center
Thu 01:21:42 PM 41.8303 -77.0525 260° West 425 489 24,000  Level Cleveland Center
Thu 01:22:45 PM 41.7906 -77.2003 250° West 424 488 24,000  Level Cleveland Center
Thu 01:23:47 PM 41.7308 -77.3708 245° Southwest 422 486 24,000  Level Cleveland Center
Thu 01:24:49 PM 41.6856 -77.4989 245° Southwest 427 491 24,000  Level Cleveland Center
Thu 01:25:51 PM 41.6239 -77.6697 244° Southwest 427 491 24,000 -484 Level Cleveland Center
Thu 01:26:53 PM 41.5736 -77.8111 245° Southwest 424 488 23,000 -968 Descending Cleveland Center
Thu 01:27:55 PM 41.5228 -77.9486 244° Southwest 417 480 22,000 -484 Descending Cleveland Center
Thu 01:28:57 PM 41.4769 -78.0892 247° West 415 478 22,000  Level Cleveland Center
Thu 01:29:59 PM 41.4336 -78.2242 247° West 403 464 22,000  Level Cleveland Center
Thu 01:31:01 PM 41.3789 -78.3942 247° West 418 481 22,000  Level Cleveland Center
Thu 01:32:03 PM 41.3394 -78.5294 249° West 440 506 22,000  Level Cleveland Center
Thu 01:33:05 PM 41.2908 -78.6683 245° Southwest 427 491 22,000  Level Cleveland Center
Thu 01:34:08 PM 41.2344 -78.8428 247° West 432 497 22,000  Level Cleveland Center
Thu 01:35:10 PM 41.1856 -78.9917 246° West 427 491 22,000 -435 Level Cleveland Center
Thu 01:36:12 PM 41.1397 -79.1294 246° West 418 481 21,100 -1,500 Descending Cleveland Center
Thu 01:37:14 PM 41.0947 -79.2667 247° West 425 489 18,900 -2,081 Descending Cleveland Center
Thu 01:38:16 PM 41.0503 -79.4008 246° West 406 467 16,800 -2,177 Descending Cleveland Center
Thu 01:39:18 PM 41.0014 -79.5514 247° West 377 434 14,400 -2,032 Descending Cleveland Center
Thu 01:40:20 PM 40.9581 -79.6689 244° Southwest 357 411 12,600 -1,694 Descending Cleveland Center
Thu 01:41:22 PM 40.8769 -79.7450 215° Southwest 367 422 10,900 -1,306 Descending Cleveland Center
Thu 01:42:24 PM 40.7914 -79.8161 212° Southwest 367 422 9,900 -1,016 Descending Cleveland Center
Thu 01:43:26 PM 40.7225 -79.8756 213° Southwest 307 353 8,800 -1,248 Descending Cleveland Center
Thu 01:44:29 PM 40.6550 -79.9339 213° Southwest 294 338 7,300 -1,584 Descending Cleveland Center
Thu 01:45:31 PM 40.5783 -79.9994 213° Southwest 277 319 5,500 -1,548 Descending Cleveland Center
Thu 01:46:33 PM 40.5122 -80.0431 207° Southwest 268 308 4,100 -1,065 Descending Cleveland Center
Thu 01:47:35 PM 40.4564 -80.0739 203° Southwest 220 253 3,300 -581 Descending Cleveland Center
Thu 01:48:37 PM 40.4203 -80.1219 225° Southwest 204 235 2,900 -581 Descending Cleveland Center
Thu 01:49:39 PM 40.4456 -80.1636 309° West 172 198 2,100 -774 Descending Cleveland Center
Thu 01:51:00 PM 40.4833 -80.2167 270° West  Level FlightAware Approximate
Thu 01:58:00 PM 40.4914 -80.2327 270° West  Level Estimated

Login

Don't have an account? Register now (free) for customized features, flight alerts, and more!